Station: Batchelor

  Atmospheric Gas Attenuation - ITU Rec 676-11   --------------- db/100km ---------------
Date Time Temp RH % AH g/m3 Dew Point Wind Direction Speed kph Gust kph Barometer mB Rainfall Since 9am 24GHz 47GHz 76GHz 122GHz 134GHz 241GHz
11 21:40 26.9 77 19.71 22.5 6 6 1013.1 0 42.3 40.5 78.6 207.9 229.9 798.8
11 21:30 27.1 76 19.67 22.5 6 7 1010.4 0 42.2 40.2 78.0 206.4 228.2 793.1
11 21:20 27.3 76 19.89 22.7 4 6 1013.1 0 42.6 40.6 79.0 209.0 231.4 804.1
11 21:10 27.2 76 19.78 22.6 6 7 1013.1 0 42.4 40.4 78.6 207.9 230.0 799.3
11 21:00 27.2 77 20.04 22.8 4 7 1010.1 0 42.9 40.8 79.6 210.7 233.5 811.5
11 20:50 27.3 77 20.15 22.9 7 9 1013.1 0 43.1 41.1 80.2 212.3 235.4 818.0
11 20:40 27.5 75 19.84 22.8 7 7 1013.1 0 42.5 40.4 78.6 207.9 230.0 799.3
11 20:30 27.8 75 20.17 23 4 6 1009.7 0 43.2 40.7 79.6 210.6 233.6 811.8
11 20:20 28.2 73 20.07 22.9 4 6 1013.1 0 42.9 40.5 78.9 208.8 231.4 804.1
11 20:10 27.9 74 20.02 22.8 2 2 1013.1 0 42.8 40.6 79.0 209.0 231.5 804.6
11 20:00 28 72 19.58 22.5 4 6 1009.2 0 41.9 39.5 76.6 202.7 224.0 778.4
11 19:50 28 71 19.31 22.4 4 4 1013.1 0 41.3 39.2 75.6 200.0 220.5 766.4
11 19:40 28 71 19.31 22.4 6 7 1013.1 0 41.3 39.2 75.6 200.0 220.5 766.4
11 19:30 28.3 70 19.35 22.3 6 7 1008.8 0 41.4 38.9 75.2 199.1 219.6 763.2
11 19:20 28.8 68 19.32 22.3 6 7 1013.1 0 41.2 38.8 74.9 198.1 218.4 758.9
11 19:10 29 66 18.96 22.2 6 6 1013.1 0 40.5 38.1 73.0 193.3 212.5 738.6
11 19:00 29.3 64 18.69 22 7 13 1008.6 0 39.9 37.3 71.3 188.7 207.1 719.9
11 18:50 29.6 63 18.7 22 6 7 1013.1 0 39.9 37.4 71.3 188.7 207.1 719.9
11 18:40 29.9 63 19.01 22.3 15 19 1013.1 0 40.5 37.8 72.4 191.6 210.7 732.5
11 18:30 30.1 63 19.21 22.5 9 17 1008.4 0 40.9 37.9 72.8 192.7 212.4 738.3
11 18:20 30.6 62 19.42 22.7 11 15 1013.1 0 41.3 38.2 73.6 194.7 214.7 746.3
11 18:10 31 63 20.17 23.3 13 17 1013.1 0 42.8 39.4 76.5 202.5 224.4 780.2
11 18:00 31.4 61 19.95 23.2 7 17 1008 0 42.3 38.6 74.8 198.1 219.2 762.4
11 17:50 33.1 51 18.26 21.9 9 13 1013.1 0 38.6 35.1 66.4 175.5 191.9 667.2
11 17:40 33.9 43 16.06 19.9 4 4 1013.1 0 34.0 31.3 56.9 150.5 161.3 560.9
11 17:30 34 41 15.39 18.9 6 7 1007.7 0 32.6 30.0 54.1 142.9 152.1 528.9
11 17:20 34.4 41 15.72 19.6 6 7 1013.1 0 33.2 30.6 55.3 146.1 156.1 542.6
11 17:10 34.4 38 14.57 18.4 9 9 1013.1 0 30.9 28.9 51.0 134.7 142.0 493.5
11 17:00 34.4 37 14.18 18 7 11 1007.5 0 30.1 28.1 49.3 130.2 136.8 475.2
11 16:50 34.6 38 14.72 18.6 7 9 1013.1 0 31.2 29.0 51.4 135.8 143.5 498.6
11 16:40 34.9 37 14.56 18.4 6 6 1013.1 0 30.8 28.7 50.7 133.8 141.0 490.0
11 16:30 35.4 35 14.13 17.6 4 9 1007.5 0 29.9 27.7 48.5 128.2 134.5 467.3
11 16:20 34.9 35 13.77 17.6 2 2 1013.1 0 29.2 27.5 47.8 126.2 131.7 457.4
11 16:10 34.8 39 15.27 18.8 4 6 1013.1 0 32.3 29.8 53.3 140.9 149.8 520.6
11 16:00 34.7 38 14.8 18.3 6 11 1007.3 0 31.3 28.9 51.4 135.8 143.6 499.2
11 15:50 34.7 38 14.8 18.7 6 7 1013.1 0 31.3 29.1 51.7 136.4 144.2 501.3
11 15:40 34.9 41 16.13 20 13 19 1013.1 0 34.0 31.0 56.5 149.4 160.2 556.9
11 15:30 34.4 37 14.18 18 6 9 1007.3 0 30.1 28.1 49.3 130.2 136.7 475.1
11 15:20 35.4 40 16.15 20.1 6 6 1013.1 0 34.0 30.9 56.2 148.6 159.4 554.3
11 15:10 35 37 14.63 18.5 2 4 1013.1 0 30.9 28.8 50.8 134.3 141.7 492.3
11 15:00 34.8 38 14.87 18.4 7 13 1007.6 0 31.5 29.0 51.6 136.3 144.3 501.6
11 14:50 34.7 37 14.41 18.2 7 11 1013.1 0 30.5 28.5 50.2 132.6 139.6 485.0
11 14:40 34.6 38 14.72 18.6 9 13 1013.1 0 31.2 29.0 51.4 135.8 143.5 498.6
11 14:30 34.7 35 13.63 17.4 6 9 1007.9 0 28.9 27.2 47.2 124.6 129.8 451.0
11 14:20 34.8 39 15.27 19.2 7 11 1013.1 0 32.3 29.8 53.3 140.9 149.8 520.6
11 14:10 34.8 36 14.09 17.9 6 6 1013.1 0 29.9 28.0 49.0 129.4 135.6 471.1
11 14:00 34.6 37 14.33 18.2 9 13 1008.4 0 30.4 28.3 49.8 131.5 138.3 480.6
11 13:50 34.9 40 15.74 19.6 13 15 1013.1 0 33.2 30.5 55.0 145.4 155.3 540.1
11 13:40 34.4 37 14.18 17.6 6 7 1013.1 0 30.1 28.3 49.6 130.9 137.4 477.2
11 13:30 34.4 42 16.1 20 2 9 1008.7 0 34.0 31.0 56.5 149.4 160.3 557.3
11 13:20 34.1 43 16.23 20.1 2 2 1013.1 0 34.3 31.5 57.5 151.9 163.1 567.0
11 13:10 34.3 41 15.63 19.5 4 6 1013.1 0 33.1 30.5 55.0 145.4 155.1 539.4
11 13:00 34.1 45 16.98 20.5 6 9 1009.2 0 35.9 32.5 60.2 159.2 172.1 598.6
11 12:50 34.3 41 15.63 19.5 2 2 1013.1 0 33.1 30.5 55.0 145.4 155.1 539.4
11 12:40 34.3 41 15.63 19.5 4 6 1013.1 0 33.1 30.5 55.0 145.4 155.1 539.4
11 12:30 34 45 16.89 20.4 6 11 1009.8 0 35.7 32.4 59.9 158.5 171.3 595.6
11 12:20 34 43 16.14 20 2 6 1013.1 0 34.1 31.4 57.2 151.1 162.1 563.7
11 12:10 33.7 44 16.26 20.1 6 6 1013.1 0 34.4 31.7 57.9 153.0 164.3 571.1
11 12:00 33.5 46 16.82 20.3 4 9 1010.4 0 35.6 32.5 60.1 158.8 171.6 596.5
11 11:50 33.5 48 17.55 21.3 0 0 1013.1 0 37.1 33.8 63.1 167.0 181.4 630.9
11 11:40 33.3 48 17.37 21.1 6 7 1013.1 0 36.7 33.6 62.6 165.4 179.5 624.3
11 11:30 33.1 50 17.9 21.3 6 11 1010.9 0 37.9 34.5 64.8 171.3 186.7 649.4
11 11:20 32.8 48 16.91 20.6 7 7 1013.1 0 35.8 33.0 61.1 161.6 174.6 607.1
11 11:10 32.6 54 18.83 22.3 7 7 1013.1 0 39.8 36.3 69.2 183.0 200.9 698.7
11 11:00 32.1 59 20.03 23.3 4 9 1011.2 0 42.4 38.5 74.7 197.7 218.9 761.1
11 10:50 31.9 59 19.82 23.1 7 9 1013.1 0 42.0 38.3 74.1 196.0 216.7 753.6
11 10:40 31.9 56 18.81 22.3 2 4 1013.1 0 39.9 36.6 69.7 184.4 202.5 704.1
11 10:30 31.4 61 19.95 23 6 9 1011.4 0 42.3 38.7 75.0 198.6 219.8 764.2
11 10:20 31.3 61 19.84 23.1 6 6 1013.1 0 42.1 38.6 74.7 197.8 218.7 760.5
11 10:10 31.5 63 20.71 23.8 0 0 1013.1 0 43.9 40.1 78.4 207.6 230.8 802.5
11 10:00 30.8 66 20.9 23.7 6 7 1011.4 0 44.3 40.7 79.9 211.5 235.5 818.7
11 09:50 30.9 69 21.97 24.7 7 7 1013.1 0 46.6 42.7 84.8 224.6 251.5 874.6
11 09:40 30.1 70 21.35 24.2 4 4 1013.1 0 45.4 42.0 82.8 219.3 244.7 850.9
11 09:30 29.7 73 21.78 24.3 6 9 1011.4 0 46.3 42.9 85.2 225.5 252.4 877.4
11 09:20 29.4 75 22.02 24.5 6 6 1013.1 0 46.9 43.6 86.8 229.8 257.4 894.8
11 09:10 29.1 73 21.09 23.9 2 4 1013.1 0 44.9 42.0 82.7 218.9 244.0 848.3
11 09:00 29.1 74 21.37 24 2 4 1011.2 0 45.5 42.4 83.9 222.1 248.0 862.2
11 08:50 28.5 74 20.69 23.4 4 4 1013.1 0 44.2 41.5 81.5 215.7 239.9 833.7
11 08:40 28.2 74 20.35 23.1 0 0 1013.1 0 43.5 41.0 80.2 212.3 235.6 818.9
11 08:30 27.5 76 20.11 22.9 0 0 1011.2 0 43.1 40.8 79.7 210.9 233.8 812.6
11 08:20 27.1 78 20.19 22.9 0 0 1013.1 0 43.3 41.3 80.6 213.4 236.6 822.3
11 08:10 26.2 80 19.69 22.6 2 2 1013.1 0 42.3 40.8 79.2 209.6 231.7 805.1
11 08:00 25.4 85 20.01 22.7 4 4 1011 0 43.1 41.7 81.5 215.6 238.9 830.0
11 07:50 24.9 90 20.6 23.1 2 4 1013.1 0 44.4 43.2 85.0 225.0 250.3 869.5
11 07:40 24 94 20.45 22.9 4 4 1013.1 0 44.2 43.4 85.3 225.8 250.9 871.5
11 07:30 23.6 95 20.2 22.8 2 4 1010.7 0 43.7 43.0 84.4 223.3 247.8 860.7
11 07:20 23.5 95 20.09 22.6 4 4 1013.1 0 43.5 42.9 84.1 222.5 246.8 857.0
11 07:10 23.4 96 20.19 22.7 4 4 1013.1 0 43.7 43.2 84.7 224.1 248.7 863.8
11 07:00 23.2 95 19.75 22.4 2 4 1010.3 0 42.8 42.3 82.5 218.4 241.8 839.7
11 06:50 23.1 95 19.64 22.2 2 2 1013.1 0 42.5 42.2 82.3 217.7 240.8 836.2
11 06:40 23.2 95 19.75 22.3 2 2 1013.1 0 42.8 42.4 82.7 218.9 242.3 841.3
11 06:30 23.2 95 19.75 22.4 2 4 1010.1 0 42.8 42.3 82.5 218.4 241.8 839.6
11 06:20 23.3 96 20.07 22.6 0 0 1013.1 0 43.4 43.0 84.2 222.8 247.1 858.2
11 06:10 23.3 95 19.86 22.4 0 0 1013.1 0 43.0 42.6 83.2 220.1 243.7 846.3
11 06:00 23.4 95 19.98 22.6 0 0 1009.8 0 43.3 42.6 83.4 220.8 244.8 850.1
11 05:50 23.5 95 20.09 22.6 0 0 1013.1 0 43.5 42.9 84.1 222.5 246.8 857.0
11 05:40 23.5 95 20.09 22.6 0 0 1013.1 0 43.5 42.9 84.1 222.5 246.8 857.0
11 04:50 23.9 94 20.33 22.8 0 0 1013.1 0 43.9 43.2 84.8 224.5 249.3 865.9
11 04:40 23.8 93 20 22.6 0 0 1013.1 0 43.2 42.6 83.3 220.4 244.3 848.5
11 04:30 23.7 93 19.89 22.5 0 0 1009.4 0 43.0 42.2 82.6 218.7 242.3 841.4

Last Refresh: 11-Apr-2021 21:48:50

Bureau of Meteorology